MET'MAP v2.0
soon released !

Expected late october,
this new version will be
more efficient, smarter,
and hosted on a brand new
server x3 powerfull...
...and still free !


Not compatible ?
Try the mobile version !

LOG IN : | Subscribe | Disclaimer | Who is Orbifly ? |
ICAO code :
Legend : VFR Marginal VFR IFR Intensive IFR Very Intensive IFR
Visi :
Ceiling :
>= 8 km
>= 3000ft
5 to 8 km
1000 to 3000 ft
1500m to 5 km
500 to 1000 ft
800 to 1500m
200 to 500 ft
< 800m
< 200 ft

METAR - EGSH Norwich - 24 Oct 2020 20:18 UTC
Data Sources :     NOAA   


- Airport Elevation : 117 ft
- IATA code : NWI
- No reported NOTAMs.


EGSH - Norwich

Latest METAR recorded : 2015/08/11 07:50 EGSH 110750Z 33004KT 300V020 CAVOK 16/12 Q1019 NOSIG
TAF TAF EGSH
Valid from the 24 at 18:00 until the 25 at 00:00 UTC


241703Z 2418/2424 19018G30KT 9999 FEW025
TEMPO 2418/2424 6000 RA BKN008
PROB30
TEMPO 2419/2424 1500 +RA

Source NOAA
ATIS : +44 1603 420 640


MET'MAP, your aeronautical weather chart ! - Copyright ORBIFLY December 2007

Programming & Development : Alexandra Zaïnal
Co-Developer : Marc-Olivier Méhu
Technical & hardware support : Manuel Goepfert
Concept & Financing : Baudouin d'Aumeries